sensor_id;sensor_type;location;lat;lon;timestamp;temperature;humidity
54846;DHT22;53889;50.084;8.646;2023-01-10T00:01:42;6.00;99.90
54846;DHT22;53889;50.084;8.646;2023-01-10T00:04:09;6.00;99.90
54846;DHT22;53889;50.084;8.646;2023-01-10T00:06:35;6.00;99.90
54846;DHT22;53889;50.084;8.646;2023-01-10T00:09:03;6.00;99.90
54846;DHT22;53889;50.084;8.646;2023-01-10T00:11:30;6.00;99.90
54846;DHT22;53889;50.084;8.646;2023-01-10T00:14:14;6.00;99.90
54846;DHT22;53889;50.084;8.646;2023-01-10T00:16:41;6.00;99.90
54846;DHT22;53889;50.084;8.646;2023-01-10T00:19:07;6.00;99.90
54846;DHT22;53889;50.084;8.646;2023-01-10T00:21:35;5.90;99.90
54846;DHT22;53889;50.084;8.646;2023-01-10T00:24:03;6.00;99.90
54846;DHT22;53889;50.084;8.646;2023-01-10T00:26:42;6.00;99.90
54846;DHT22;53889;50.084;8.646;2023-01-10T00:29:11;6.10;99.90
54846;DHT22;53889;50.084;8.646;2023-01-10T00:31:38;6.10;99.90
54846;DHT22;53889;50.084;8.646;2023-01-10T00:34:04;6.20;99.90
54846;DHT22;53889;50.084;8.646;2023-01-10T00:36:32;6.30;99.90
54846;DHT22;53889;50.084;8.646;2023-01-10T00:38:58;6.30;99.90
54846;DHT22;53889;50.084;8.646;2023-01-10T00:41:27;6.20;99.90
54846;DHT22;53889;50.084;8.646;2023-01-10T00:44:11;6.20;99.90
54846;DHT22;53889;50.084;8.646;2023-01-10T00:46:37;6.10;99.90
54846;DHT22;53889;50.084;8.646;2023-01-10T00:49:04;6.20;99.90
54846;DHT22;53889;50.084;8.646;2023-01-10T00:51:33;6.10;99.90
54846;DHT22;53889;50.084;8.646;2023-01-10T00:54:00;6.20;99.90
54846;DHT22;53889;50.084;8.646;2023-01-10T00:56:28;6.10;99.90
54846;DHT22;53889;50.084;8.646;2023-01-10T00:58:55;6.10;99.90
54846;DHT22;53889;50.084;8.646;2023-01-10T01:01:22;6.20;99.90
54846;DHT22;53889;50.084;8.646;2023-01-10T01:03:48;6.20;99.90
54846;DHT22;53889;50.084;8.646;2023-01-10T01:06:15;6.30;99.90
54846;DHT22;53889;50.084;8.646;2023-01-10T01:08:42;6.40;99.90
54846;DHT22;53889;50.084;8.646;2023-01-10T01:11:09;6.40;99.90
54846;DHT22;53889;50.084;8.646;2023-01-10T01:13:37;6.40;99.90
54846;DHT22;53889;50.084;8.646;2023-01-10T01:16:04;6.40;99.90
54846;DHT22;53889;50.084;8.646;2023-01-10T01:18:31;6.40;99.90
54846;DHT22;53889;50.084;8.646;2023-01-10T01:20:58;6.30;99.90
54846;DHT22;53889;50.084;8.646;2023-01-10T01:23:28;6.30;99.90
54846;DHT22;53889;50.084;8.646;2023-01-10T01:25:55;6.20;99.90
54846;DHT22;53889;50.084;8.646;2023-01-10T01:28:23;6.40;99.90
54846;DHT22;53889;50.084;8.646;2023-01-10T01:30:51;6.40;99.90
54846;DHT22;53889;50.084;8.646;2023-01-10T01:33:18;6.40;99.90
54846;DHT22;53889;50.084;8.646;2023-01-10T01:35:47;6.50;99.90
54846;DHT22;53889;50.084;8.646;2023-01-10T01:38:15;6.60;99.90
54846;DHT22;53889;50.084;8.646;2023-01-10T01:40:42;6.60;99.90
54846;DHT22;53889;50.084;8.646;2023-01-10T01:43:20;6.60;99.90
54846;DHT22;53889;50.084;8.646;2023-01-10T01:45:47;6.60;99.90
54846;DHT22;53889;50.084;8.646;2023-01-10T01:48:21;6.70;99.90
54846;DHT22;53889;50.084;8.646;2023-01-10T01:50:54;6.70;99.90
54846;DHT22;53889;50.084;8.646;2023-01-10T01:53:27;6.60;99.90
54846;DHT22;53889;50.084;8.646;2023-01-10T01:55:58;6.60;99.90
54846;DHT22;53889;50.084;8.646;2023-01-10T01:58:30;6.60;99.90
54846;DHT22;53889;50.084;8.646;2023-01-10T02:00:59;7.10;99.90
54846;DHT22;53889;50.084;8.646;2023-01-10T02:03:28;6.70;99.90
54846;DHT22;53889;50.084;8.646;2023-01-10T02:05:55;6.60;99.90
54846;DHT22;53889;50.084;8.646;2023-01-10T02:08:22;6.60;99.90
54846;DHT22;53889;50.084;8.646;2023-01-10T02:10:52;6.50;99.90
54846;DHT22;53889;50.084;8.646;2023-01-10T02:13:23;6.40;99.90
54846;DHT22;53889;50.084;8.646;2023-01-10T02:15:50;6.30;99.90
54846;DHT22;53889;50.084;8.646;2023-01-10T02:18:18;6.30;99.90
54846;DHT22;53889;50.084;8.646;2023-01-10T02:20:59;6.30;99.90
54846;DHT22;53889;50.084;8.646;2023-01-10T02:23:49;6.30;99.90
54846;DHT22;53889;50.084;8.646;2023-01-10T02:26:41;6.30;99.90
54846;DHT22;53889;50.084;8.646;2023-01-10T02:29:50;6.30;99.90
54846;DHT22;53889;50.084;8.646;2023-01-10T02:32:29;6.20;99.90
54846;DHT22;53889;50.084;8.646;2023-01-10T02:35:07;6.30;99.90
54846;DHT22;53889;50.084;8.646;2023-01-10T02:37:42;6.30;99.90
54846;DHT22;53889;50.084;8.646;2023-01-10T02:40:14;6.30;99.90
54846;DHT22;53889;50.084;8.646;2023-01-10T02:42:50;6.40;99.90
54846;DHT22;53889;50.084;8.646;2023-01-10T02:45:22;6.30;99.90
54846;DHT22;53889;50.084;8.646;2023-01-10T02:47:52;6.30;99.90
54846;DHT22;53889;50.084;8.646;2023-01-10T02:50:29;6.30;99.90
54846;DHT22;53889;50.084;8.646;2023-01-10T02:52:59;6.20;99.90
54846;DHT22;53889;50.084;8.646;2023-01-10T02:55:34;6.20;99.90
54846;DHT22;53889;50.084;8.646;2023-01-10T02:58:12;6.20;99.90
54846;DHT22;53889;50.084;8.646;2023-01-10T03:00:44;6.20;99.90
54846;DHT22;53889;50.084;8.646;2023-01-10T03:03:28;6.30;99.90
54846;DHT22;53889;50.084;8.646;2023-01-10T03:06:09;6.20;99.90
54846;DHT22;53889;50.084;8.646;2023-01-10T03:08:43;6.20;99.90
54846;DHT22;53889;50.084;8.646;2023-01-10T03:11:13;6.20;99.90
54846;DHT22;53889;50.084;8.646;2023-01-10T03:13:45;6.20;99.90
54846;DHT22;53889;50.084;8.646;2023-01-10T03:16:16;6.20;99.90
54846;DHT22;53889;50.084;8.646;2023-01-10T03:18:48;6.30;99.90
54846;DHT22;53889;50.084;8.646;2023-01-10T03:21:20;6.30;99.90
54846;DHT22;53889;50.084;8.646;2023-01-10T03:23:49;6.30;99.90
54846;DHT22;53889;50.084;8.646;2023-01-10T03:26:19;6.40;99.90
54846;DHT22;53889;50.084;8.646;2023-01-10T03:28:51;6.40;99.90
54846;DHT22;53889;50.084;8.646;2023-01-10T03:31:27;6.40;99.90
54846;DHT22;53889;50.084;8.646;2023-01-10T03:33:58;6.40;99.90
54846;DHT22;53889;50.084;8.646;2023-01-10T03:36:29;6.30;99.90
54846;DHT22;53889;50.084;8.646;2023-01-10T03:39:03;6.30;99.90
54846;DHT22;53889;50.084;8.646;2023-01-10T03:41:35;6.30;99.90
54846;DHT22;53889;50.084;8.646;2023-01-10T03:44:08;6.20;99.90
54846;DHT22;53889;50.084;8.646;2023-01-10T03:46:58;6.20;99.90
54846;DHT22;53889;50.084;8.646;2023-01-10T03:49:27;6.20;99.90
54846;DHT22;53889;50.084;8.646;2023-01-10T03:51:56;6.20;99.90
54846;DHT22;53889;50.084;8.646;2023-01-10T03:54:24;6.10;99.90
54846;DHT22;53889;50.084;8.646;2023-01-10T03:56:50;6.10;99.90
54846;DHT22;53889;50.084;8.646;2023-01-10T03:59:19;6.00;99.90
54846;DHT22;53889;50.084;8.646;2023-01-10T04:01:46;6.00;99.90
54846;DHT22;53889;50.084;8.646;2023-01-10T04:04:13;6.00;99.90
54846;DHT22;53889;50.084;8.646;2023-01-10T04:06:41;5.90;99.90
54846;DHT22;53889;50.084;8.646;2023-01-10T04:09:07;5.90;99.90
54846;DHT22;53889;50.084;8.646;2023-01-10T04:11:34;5.90;99.90
54846;DHT22;53889;50.084;8.646;2023-01-10T04:14:01;6.00;99.90
54846;DHT22;53889;50.084;8.646;2023-01-10T04:16:28;5.90;99.90
54846;DHT22;53889;50.084;8.646;2023-01-10T04:18:55;6.00;99.90
54846;DHT22;53889;50.084;8.646;2023-01-10T04:21:22;5.90;99.90
54846;DHT22;53889;50.084;8.646;2023-01-10T04:23:49;5.80;99.90
54846;DHT22;53889;50.084;8.646;2023-01-10T04:26:16;5.80;99.90
54846;DHT22;53889;50.084;8.646;2023-01-10T04:28:43;5.80;99.90
54846;DHT22;53889;50.084;8.646;2023-01-10T04:31:09;5.70;99.90
54846;DHT22;53889;50.084;8.646;2023-01-10T04:33:36;5.70;99.90
54846;DHT22;53889;50.084;8.646;2023-01-10T04:36:05;5.70;99.90
54846;DHT22;53889;50.084;8.646;2023-01-10T04:38:32;5.70;99.90
54846;DHT22;53889;50.084;8.646;2023-01-10T04:41:00;5.60;99.90
54846;DHT22;53889;50.084;8.646;2023-01-10T04:43:27;5.70;99.90
54846;DHT22;53889;50.084;8.646;2023-01-10T04:45:54;5.60;99.90
54846;DHT22;53889;50.084;8.646;2023-01-10T04:48:20;5.60;99.90
54846;DHT22;53889;50.084;8.646;2023-01-10T04:50:51;5.50;99.90
54846;DHT22;53889;50.084;8.646;2023-01-10T04:53:18;5.60;99.90
54846;DHT22;53889;50.084;8.646;2023-01-10T04:55:45;5.60;99.90
54846;DHT22;53889;50.084;8.646;2023-01-10T04:58:13;5.60;99.90
54846;DHT22;53889;50.084;8.646;2023-01-10T05:00:40;5.50;99.90
54846;DHT22;53889;50.084;8.646;2023-01-10T05:03:07;5.50;99.90
54846;DHT22;53889;50.084;8.646;2023-01-10T05:05:34;5.50;99.90
54846;DHT22;53889;50.084;8.646;2023-01-10T05:08:00;5.50;99.90
54846;DHT22;53889;50.084;8.646;2023-01-10T05:10:27;5.50;99.90
54846;DHT22;53889;50.084;8.646;2023-01-10T05:12:54;5.50;99.90
54846;DHT22;53889;50.084;8.646;2023-01-10T05:15:22;5.50;99.90
54846;DHT22;53889;50.084;8.646;2023-01-10T05:17:48;5.50;99.90
54846;DHT22;53889;50.084;8.646;2023-01-10T05:20:16;5.40;99.90
54846;DHT22;53889;50.084;8.646;2023-01-10T05:22:42;5.30;99.90
54846;DHT22;53889;50.084;8.646;2023-01-10T05:25:10;5.30;99.90
54846;DHT22;53889;50.084;8.646;2023-01-10T05:27:40;5.40;99.90
54846;DHT22;53889;50.084;8.646;2023-01-10T05:30:09;5.50;99.90
54846;DHT22;53889;50.084;8.646;2023-01-10T05:32:38;5.40;99.90
54846;DHT22;53889;50.084;8.646;2023-01-10T05:35:05;5.40;99.90
54846;DHT22;53889;50.084;8.646;2023-01-10T05:37:32;5.50;99.90
54846;DHT22;53889;50.084;8.646;2023-01-10T05:39:59;5.60;99.90
54846;DHT22;53889;50.084;8.646;2023-01-10T05:42:26;5.60;99.90
54846;DHT22;53889;50.084;8.646;2023-01-10T05:44:52;6.30;99.90
54846;DHT22;53889;50.084;8.646;2023-01-10T05:47:19;5.70;99.90
54846;DHT22;53889;50.084;8.646;2023-01-10T05:49:47;5.70;99.90
54846;DHT22;53889;50.084;8.646;2023-01-10T05:52:14;5.70;99.90
54846;DHT22;53889;50.084;8.646;2023-01-10T05:54:41;5.80;99.90
54846;DHT22;53889;50.084;8.646;2023-01-10T05:57:09;5.80;99.90
54846;DHT22;53889;50.084;8.646;2023-01-10T05:59:36;5.90;99.90
54846;DHT22;53889;50.084;8.646;2023-01-10T06:02:03;6.00;99.90
54846;DHT22;53889;50.084;8.646;2023-01-10T06:04:30;5.80;99.90
54846;DHT22;53889;50.084;8.646;2023-01-10T06:06:59;5.80;99.90
54846;DHT22;53889;50.084;8.646;2023-01-10T06:09:25;5.80;99.90
54846;DHT22;53889;50.084;8.646;2023-01-10T06:11:52;5.80;99.90
54846;DHT22;53889;50.084;8.646;2023-01-10T06:14:19;5.60;99.90
54846;DHT22;53889;50.084;8.646;2023-01-10T06:16:46;5.70;99.90
54846;DHT22;53889;50.084;8.646;2023-01-10T06:19:13;7.90;99.90
54846;DHT22;53889;50.084;8.646;2023-01-10T06:21:40;5.80;99.90
54846;DHT22;53889;50.084;8.646;2023-01-10T06:24:10;5.80;99.90
54846;DHT22;53889;50.084;8.646;2023-01-10T06:26:38;5.80;99.90
54846;DHT22;53889;50.084;8.646;2023-01-10T06:29:05;6.20;99.90
54846;DHT22;53889;50.084;8.646;2023-01-10T06:31:32;5.70;99.90
54846;DHT22;53889;50.084;8.646;2023-01-10T06:33:59;5.70;99.90
54846;DHT22;53889;50.084;8.646;2023-01-10T06:36:25;5.80;99.90
54846;DHT22;53889;50.084;8.646;2023-01-10T06:38:52;5.90;99.90
54846;DHT22;53889;50.084;8.646;2023-01-10T06:41:20;5.90;99.90
54846;DHT22;53889;50.084;8.646;2023-01-10T06:43:48;5.90;99.90
54846;DHT22;53889;50.084;8.646;2023-01-10T06:46:16;8.50;99.90
54846;DHT22;53889;50.084;8.646;2023-01-10T06:48:44;5.60;99.90
54846;DHT22;53889;50.084;8.646;2023-01-10T06:51:12;6.00;99.90
54846;DHT22;53889;50.084;8.646;2023-01-10T06:53:40;6.10;99.90
54846;DHT22;53889;50.084;8.646;2023-01-10T06:56:07;6.10;99.90
54846;DHT22;53889;50.084;8.646;2023-01-10T06:58:36;6.10;99.90
54846;DHT22;53889;50.084;8.646;2023-01-10T07:01:04;6.10;99.90
54846;DHT22;53889;50.084;8.646;2023-01-10T07:03:31;6.00;99.90
54846;DHT22;53889;50.084;8.646;2023-01-10T07:06:00;5.90;99.90
54846;DHT22;53889;50.084;8.646;2023-01-10T07:08:27;7.30;99.90
54846;DHT22;53889;50.084;8.646;2023-01-10T07:10:56;5.90;99.90
54846;DHT22;53889;50.084;8.646;2023-01-10T07:13:24;6.00;99.90
54846;DHT22;53889;50.084;8.646;2023-01-10T07:16:00;6.00;99.90
54846;DHT22;53889;50.084;8.646;2023-01-10T07:18:27;6.80;99.90
54846;DHT22;53889;50.084;8.646;2023-01-10T07:20:54;6.10;99.90
54846;DHT22;53889;50.084;8.646;2023-01-10T07:23:21;6.00;99.90
54846;DHT22;53889;50.084;8.646;2023-01-10T07:25:48;5.90;99.90
54846;DHT22;53889;50.084;8.646;2023-01-10T07:28:15;7.40;99.90
54846;DHT22;53889;50.084;8.646;2023-01-10T07:30:43;5.80;99.90
54846;DHT22;53889;50.084;8.646;2023-01-10T07:33:12;5.80;99.90
54846;DHT22;53889;50.084;8.646;2023-01-10T07:35:38;8.00;99.90
54846;DHT22;53889;50.084;8.646;2023-01-10T07:38:05;5.70;99.90
54846;DHT22;53889;50.084;8.646;2023-01-10T07:40:34;8.20;99.90
54846;DHT22;53889;50.084;8.646;2023-01-10T07:43:04;6.20;99.90
54846;DHT22;53889;50.084;8.646;2023-01-10T07:45:31;5.80;99.90
54846;DHT22;53889;50.084;8.646;2023-01-10T07:47:58;5.90;99.90
54846;DHT22;53889;50.084;8.646;2023-01-10T07:50:29;6.40;99.90
54846;DHT22;53889;50.084;8.646;2023-01-10T07:52:58;5.20;99.90
54846;DHT22;53889;50.084;8.646;2023-01-10T07:55:26;8.10;99.90
54846;DHT22;53889;50.084;8.646;2023-01-10T07:57:53;7.90;99.90
54846;DHT22;53889;50.084;8.646;2023-01-10T08:00:21;5.80;99.90
54846;DHT22;53889;50.084;8.646;2023-01-10T08:02:52;6.00;99.90
54846;DHT22;53889;50.084;8.646;2023-01-10T08:05:19;6.00;99.90
54846;DHT22;53889;50.084;8.646;2023-01-10T08:07:49;7.80;99.90
54846;DHT22;53889;50.084;8.646;2023-01-10T08:10:16;6.10;99.90
54846;DHT22;53889;50.084;8.646;2023-01-10T08:12:43;5.90;99.90
54846;DHT22;53889;50.084;8.646;2023-01-10T08:15:14;5.90;99.90
54846;DHT22;53889;50.084;8.646;2023-01-10T08:17:41;5.90;99.90
54846;DHT22;53889;50.084;8.646;2023-01-10T08:20:10;6.00;99.90
54846;DHT22;53889;50.084;8.646;2023-01-10T08:22:37;6.10;99.90
54846;DHT22;53889;50.084;8.646;2023-01-10T08:25:06;6.50;99.90
54846;DHT22;53889;50.084;8.646;2023-01-10T08:27:33;6.20;99.90
54846;DHT22;53889;50.084;8.646;2023-01-10T08:30:19;6.20;99.90
54846;DHT22;53889;50.084;8.646;2023-01-10T08:32:46;6.30;99.90
54846;DHT22;53889;50.084;8.646;2023-01-10T08:35:14;6.20;99.90
54846;DHT22;53889;50.084;8.646;2023-01-10T08:37:41;6.20;99.90
54846;DHT22;53889;50.084;8.646;2023-01-10T08:40:10;8.30;99.90
54846;DHT22;53889;50.084;8.646;2023-01-10T08:42:37;6.10;99.90
54846;DHT22;53889;50.084;8.646;2023-01-10T08:45:05;6.10;99.90
54846;DHT22;53889;50.084;8.646;2023-01-10T08:47:33;6.10;99.90
54846;DHT22;53889;50.084;8.646;2023-01-10T08:50:00;6.20;99.90
54846;DHT22;53889;50.084;8.646;2023-01-10T08:52:27;6.20;99.90
54846;DHT22;53889;50.084;8.646;2023-01-10T08:54:54;8.60;99.90
54846;DHT22;53889;50.084;8.646;2023-01-10T08:57:22;6.20;99.90
54846;DHT22;53889;50.084;8.646;2023-01-10T08:59:49;6.30;99.90
54846;DHT22;53889;50.084;8.646;2023-01-10T09:02:16;6.20;99.90
54846;DHT22;53889;50.084;8.646;2023-01-10T09:04:43;6.10;99.90
54846;DHT22;53889;50.084;8.646;2023-01-10T09:07:10;6.10;99.90
54846;DHT22;53889;50.084;8.646;2023-01-10T09:09:37;7.40;99.90
54846;DHT22;53889;50.084;8.646;2023-01-10T09:12:04;7.60;99.90
54846;DHT22;53889;50.084;8.646;2023-01-10T09:14:53;6.40;99.90
54846;DHT22;53889;50.084;8.646;2023-01-10T09:17:20;7.50;99.90
54846;DHT22;53889;50.084;8.646;2023-01-10T09:19:47;8.30;99.90
54846;DHT22;53889;50.084;8.646;2023-01-10T09:22:13;6.40;99.90
54846;DHT22;53889;50.084;8.646;2023-01-10T09:24:40;6.50;99.90
54846;DHT22;53889;50.084;8.646;2023-01-10T09:27:09;6.60;99.90
54846;DHT22;53889;50.084;8.646;2023-01-10T09:29:35;6.70;99.90
54846;DHT22;53889;50.084;8.646;2023-01-10T09:32:04;6.70;99.90
54846;DHT22;53889;50.084;8.646;2023-01-10T09:34:31;6.80;99.90
54846;DHT22;53889;50.084;8.646;2023-01-10T09:36:58;8.50;99.90
54846;DHT22;53889;50.084;8.646;2023-01-10T09:39:25;6.90;99.90
54846;DHT22;53889;50.084;8.646;2023-01-10T09:42:11;9.20;99.90
54846;DHT22;53889;50.084;8.646;2023-01-10T09:44:46;7.10;99.90
54846;DHT22;53889;50.084;8.646;2023-01-10T09:47:17;7.10;99.90
54846;DHT22;53889;50.084;8.646;2023-01-10T09:49:51;7.20;99.90
54846;DHT22;53889;50.084;8.646;2023-01-10T09:52:22;7.20;99.90
54846;DHT22;53889;50.084;8.646;2023-01-10T09:54:51;7.30;99.90
54846;DHT22;53889;50.084;8.646;2023-01-10T09:57:21;7.40;99.90
54846;DHT22;53889;50.084;8.646;2023-01-10T09:59:50;7.40;99.90
54846;DHT22;53889;50.084;8.646;2023-01-10T10:02:25;7.50;99.90
54846;DHT22;53889;50.084;8.646;2023-01-10T10:05:04;7.50;99.90
54846;DHT22;53889;50.084;8.646;2023-01-10T10:07:37;7.60;99.90
54846;DHT22;53889;50.084;8.646;2023-01-10T10:10:05;7.50;99.90
54846;DHT22;53889;50.084;8.646;2023-01-10T10:12:39;7.60;99.90
54846;DHT22;53889;50.084;8.646;2023-01-10T10:15:17;8.50;99.90
54846;DHT22;53889;50.084;8.646;2023-01-10T10:17:54;7.60;99.90
54846;DHT22;53889;50.084;8.646;2023-01-10T10:20:38;7.60;99.90
54846;DHT22;53889;50.084;8.646;2023-01-10T10:26:03;7.80;99.90
54846;DHT22;53889;50.084;8.646;2023-01-10T10:28:42;8.30;99.90
54846;DHT22;53889;50.084;8.646;2023-01-10T10:31:15;8.80;99.90
54846;DHT22;53889;50.084;8.646;2023-01-10T10:33:53;9.10;99.90
54846;DHT22;53889;50.084;8.646;2023-01-10T10:36:24;9.70;99.90
54846;DHT22;53889;50.084;8.646;2023-01-10T10:38:56;8.60;99.90
54846;DHT22;53889;50.084;8.646;2023-01-10T10:41:29;8.50;99.90
54846;DHT22;53889;50.084;8.646;2023-01-10T10:44:00;8.50;99.90
54846;DHT22;53889;50.084;8.646;2023-01-10T10:46:30;8.50;99.90
54846;DHT22;53889;50.084;8.646;2023-01-10T10:48:59;8.70;99.90
54846;DHT22;53889;50.084;8.646;2023-01-10T10:51:38;8.50;99.90
54846;DHT22;53889;50.084;8.646;2023-01-10T10:54:10;8.40;99.90
54846;DHT22;53889;50.084;8.646;2023-01-10T10:56:38;8.40;99.90
54846;DHT22;53889;50.084;8.646;2023-01-10T10:59:05;8.40;99.90
54846;DHT22;53889;50.084;8.646;2023-01-10T11:01:32;8.50;99.90
54846;DHT22;53889;50.084;8.646;2023-01-10T11:04:04;8.60;99.90
54846;DHT22;53889;50.084;8.646;2023-01-10T11:06:32;8.90;99.90
54846;DHT22;53889;50.084;8.646;2023-01-10T11:09:03;8.90;99.90
54846;DHT22;53889;50.084;8.646;2023-01-10T11:11:32;8.80;99.90
54846;DHT22;53889;50.084;8.646;2023-01-10T11:14:02;8.60;99.90
54846;DHT22;53889;50.084;8.646;2023-01-10T11:16:30;8.70;99.90
54846;DHT22;53889;50.084;8.646;2023-01-10T11:19:15;10.50;99.90
54846;DHT22;53889;50.084;8.646;2023-01-10T11:21:47;9.50;99.90
54846;DHT22;53889;50.084;8.646;2023-01-10T11:24:21;8.80;99.90
54846;DHT22;53889;50.084;8.646;2023-01-10T11:26:50;10.70;99.90
54846;DHT22;53889;50.084;8.646;2023-01-10T11:29:20;8.70;99.90
54846;DHT22;53889;50.084;8.646;2023-01-10T11:31:48;8.50;99.90
54846;DHT22;53889;50.084;8.646;2023-01-10T11:34:23;8.50;99.90
54846;DHT22;53889;50.084;8.646;2023-01-10T11:36:56;8.30;99.90
54846;DHT22;53889;50.084;8.646;2023-01-10T11:39:24;8.20;99.90
54846;DHT22;53889;50.084;8.646;2023-01-10T11:41:51;8.30;99.90
54846;DHT22;53889;50.084;8.646;2023-01-10T11:44:23;8.20;99.90
54846;DHT22;53889;50.084;8.646;2023-01-10T11:46:53;8.10;99.90
54846;DHT22;53889;50.084;8.646;2023-01-10T11:49:27;8.20;99.90
54846;DHT22;53889;50.084;8.646;2023-01-10T11:51:58;8.20;99.90
54846;DHT22;53889;50.084;8.646;2023-01-10T11:54:27;8.30;99.90
54846;DHT22;53889;50.084;8.646;2023-01-10T11:56:56;9.30;99.90
54846;DHT22;53889;50.084;8.646;2023-01-10T11:59:25;9.70;99.90
54846;DHT22;53889;50.084;8.646;2023-01-10T12:01:56;8.30;99.90
54846;DHT22;53889;50.084;8.646;2023-01-10T12:04:28;8.20;99.90
54846;DHT22;53889;50.084;8.646;2023-01-10T12:06:58;7.90;99.90
54846;DHT22;53889;50.084;8.646;2023-01-10T12:09:33;8.20;99.90
54846;DHT22;53889;50.084;8.646;2023-01-10T12:12:02;9.30;99.90
54846;DHT22;53889;50.084;8.646;2023-01-10T12:14:29;8.20;99.90
54846;DHT22;53889;50.084;8.646;2023-01-10T12:17:00;8.30;99.90
54846;DHT22;53889;50.084;8.646;2023-01-10T12:19:29;8.50;99.90
54846;DHT22;53889;50.084;8.646;2023-01-10T12:21:59;9.90;99.90
54846;DHT22;53889;50.084;8.646;2023-01-10T12:24:32;8.60;99.90
54846;DHT22;53889;50.084;8.646;2023-01-10T12:27:00;8.60;99.90
54846;DHT22;53889;50.084;8.646;2023-01-10T12:29:32;8.60;99.90
54846;DHT22;53889;50.084;8.646;2023-01-10T12:32:00;8.40;99.90
54846;DHT22;53889;50.084;8.646;2023-01-10T12:34:38;8.40;99.90
54846;DHT22;53889;50.084;8.646;2023-01-10T12:37:11;8.40;99.90
54846;DHT22;53889;50.084;8.646;2023-01-10T12:39:42;8.40;99.90
54846;DHT22;53889;50.084;8.646;2023-01-10T12:42:19;9.40;99.90
54846;DHT22;53889;50.084;8.646;2023-01-10T12:45:08;10.70;99.90
54846;DHT22;53889;50.084;8.646;2023-01-10T12:47:47;8.20;99.90
54846;DHT22;53889;50.084;8.646;2023-01-10T12:50:20;8.10;99.90
54846;DHT22;53889;50.084;8.646;2023-01-10T12:52:55;8.10;99.90
54846;DHT22;53889;50.084;8.646;2023-01-10T12:55:26;8.10;99.90
54846;DHT22;53889;50.084;8.646;2023-01-10T12:57:57;7.90;99.90
54846;DHT22;53889;50.084;8.646;2023-01-10T13:00:29;8.00;99.90
54846;DHT22;53889;50.084;8.646;2023-01-10T13:02:59;8.10;99.90
54846;DHT22;53889;50.084;8.646;2023-01-10T13:05:29;8.00;99.90
54846;DHT22;53889;50.084;8.646;2023-01-10T13:07:59;8.00;99.90
54846;DHT22;53889;50.084;8.646;2023-01-10T13:10:28;8.00;99.90
54846;DHT22;53889;50.084;8.646;2023-01-10T13:13:00;8.10;99.90
54846;DHT22;53889;50.084;8.646;2023-01-10T13:15:31;8.00;99.90
54846;DHT22;53889;50.084;8.646;2023-01-10T13:18:01;8.00;99.90
54846;DHT22;53889;50.084;8.646;2023-01-10T13:20:40;8.10;99.90
54846;DHT22;53889;50.084;8.646;2023-01-10T13:23:24;8.10;99.90
54846;DHT22;53889;50.084;8.646;2023-01-10T13:26:00;8.00;99.90
54846;DHT22;53889;50.084;8.646;2023-01-10T13:28:31;8.00;99.90
54846;DHT22;53889;50.084;8.646;2023-01-10T13:31:00;8.00;99.90
54846;DHT22;53889;50.084;8.646;2023-01-10T13:33:29;8.00;99.90
54846;DHT22;53889;50.084;8.646;2023-01-10T13:36:08;10.30;99.90
54846;DHT22;53889;50.084;8.646;2023-01-10T13:38:43;8.00;99.90
54846;DHT22;53889;50.084;8.646;2023-01-10T13:41:11;8.10;99.90
54846;DHT22;53889;50.084;8.646;2023-01-10T13:44:04;8.00;99.90
54846;DHT22;53889;50.084;8.646;2023-01-10T13:46:47;8.00;99.90
54846;DHT22;53889;50.084;8.646;2023-01-10T13:49:41;8.00;99.90
54846;DHT22;53889;50.084;8.646;2023-01-10T13:52:40;8.10;99.90
54846;DHT22;53889;50.084;8.646;2023-01-10T13:55:22;8.00;99.90
54846;DHT22;53889;50.084;8.646;2023-01-10T13:57:51;8.00;99.90
54846;DHT22;53889;50.084;8.646;2023-01-10T14:00:24;8.00;99.90
54846;DHT22;53889;50.084;8.646;2023-01-10T14:06:33;8.00;99.90
54846;DHT22;53889;50.084;8.646;2023-01-10T14:09:42;8.00;99.90
54846;DHT22;53889;50.084;8.646;2023-01-10T14:12:28;8.00;99.90
54846;DHT22;53889;50.084;8.646;2023-01-10T14:15:00;7.90;99.90
54846;DHT22;53889;50.084;8.646;2023-01-10T14:17:29;7.90;99.90
54846;DHT22;53889;50.084;8.646;2023-01-10T14:20:16;7.90;99.90
54846;DHT22;53889;50.084;8.646;2023-01-10T14:23:06;7.90;99.90
54846;DHT22;53889;50.084;8.646;2023-01-10T14:25:36;8.30;99.90
54846;DHT22;53889;50.084;8.646;2023-01-10T14:28:04;7.70;99.90
54846;DHT22;53889;50.084;8.646;2023-01-10T14:30:41;7.70;99.90
54846;DHT22;53889;50.084;8.646;2023-01-10T14:33:14;7.70;99.90
54846;DHT22;53889;50.084;8.646;2023-01-10T14:35:44;7.80;99.90
54846;DHT22;53889;50.084;8.646;2023-01-10T14:38:17;7.90;99.90
54846;DHT22;53889;50.084;8.646;2023-01-10T14:40:49;7.90;99.90
54846;DHT22;53889;50.084;8.646;2023-01-10T14:43:19;7.80;99.90
54846;DHT22;53889;50.084;8.646;2023-01-10T14:45:52;7.80;99.90
54846;DHT22;53889;50.084;8.646;2023-01-10T14:48:23;7.80;99.90
54846;DHT22;53889;50.084;8.646;2023-01-10T14:50:52;7.70;99.90
54846;DHT22;53889;50.084;8.646;2023-01-10T14:53:27;7.80;99.90
54846;DHT22;53889;50.084;8.646;2023-01-10T14:55:56;9.80;99.90
54846;DHT22;53889;50.084;8.646;2023-01-10T14:58:23;9.60;99.90
54846;DHT22;53889;50.084;8.646;2023-01-10T15:00:50;7.90;99.90
54846;DHT22;53889;50.084;8.646;2023-01-10T15:03:21;7.80;99.90
54846;DHT22;53889;50.084;8.646;2023-01-10T15:05:50;9.10;99.90
54846;DHT22;53889;50.084;8.646;2023-01-10T15:08:21;7.80;99.90
54846;DHT22;53889;50.084;8.646;2023-01-10T15:10:50;7.80;99.90
54846;DHT22;53889;50.084;8.646;2023-01-10T15:13:22;9.20;99.90
54846;DHT22;53889;50.084;8.646;2023-01-10T15:15:51;7.70;99.90
54846;DHT22;53889;50.084;8.646;2023-01-10T15:18:32;7.70;99.90
54846;DHT22;53889;50.084;8.646;2023-01-10T15:21:03;7.70;99.90
54846;DHT22;53889;50.084;8.646;2023-01-10T15:23:34;7.60;99.90
54846;DHT22;53889;50.084;8.646;2023-01-10T15:26:04;7.60;99.90
54846;DHT22;53889;50.084;8.646;2023-01-10T15:28:34;7.60;99.90
54846;DHT22;53889;50.084;8.646;2023-01-10T15:31:03;7.50;99.90
54846;DHT22;53889;50.084;8.646;2023-01-10T15:33:31;7.50;99.90
54846;DHT22;53889;50.084;8.646;2023-01-10T15:36:02;7.50;99.90
54846;DHT22;53889;50.084;8.646;2023-01-10T15:38:29;7.50;99.90
54846;DHT22;53889;50.084;8.646;2023-01-10T15:41:00;8.20;99.90
54846;DHT22;53889;50.084;8.646;2023-01-10T15:43:29;7.40;99.90
54846;DHT22;53889;50.084;8.646;2023-01-10T15:45:58;7.70;99.90
54846;DHT22;53889;50.084;8.646;2023-01-10T15:48:29;7.20;99.90
54846;DHT22;53889;50.084;8.646;2023-01-10T15:50:58;7.30;99.90
54846;DHT22;53889;50.084;8.646;2023-01-10T15:53:53;7.70;99.90
54846;DHT22;53889;50.084;8.646;2023-01-10T15:56:26;7.40;99.90
54846;DHT22;53889;50.084;8.646;2023-01-10T15:58:54;7.40;99.90
54846;DHT22;53889;50.084;8.646;2023-01-10T16:01:24;7.40;99.90
54846;DHT22;53889;50.084;8.646;2023-01-10T16:03:52;7.30;99.90
54846;DHT22;53889;50.084;8.646;2023-01-10T16:06:24;7.30;99.90
54846;DHT22;53889;50.084;8.646;2023-01-10T16:08:52;7.30;99.90
54846;DHT22;53889;50.084;8.646;2023-01-10T16:11:23;7.20;99.90
54846;DHT22;53889;50.084;8.646;2023-01-10T16:14:09;8.30;99.90